sensor_id;sensor_type;location;lat;lon;timestamp;P1;durP1;ratioP1;P2;durP2;ratioP2
30466;SDS011;17258;52.560;13.046;2022-11-09T00:03:35;1.10;;;1.00;;
30466;SDS011;17258;52.560;13.046;2022-11-09T00:13:37;0.77;;;0.77;;
30466;SDS011;17258;52.560;13.046;2022-11-09T00:23:40;0.82;;;0.80;;
30466;SDS011;17258;52.560;13.046;2022-11-09T00:33:40;0.88;;;0.80;;
30466;SDS011;17258;52.560;13.046;2022-11-09T00:43:41;1.00;;;0.90;;
30466;SDS011;17258;52.560;13.046;2022-11-09T00:53:42;0.90;;;0.90;;
30466;SDS011;17258;52.560;13.046;2022-11-09T01:03:43;1.13;;;1.05;;
30466;SDS011;17258;52.560;13.046;2022-11-09T01:13:44;1.20;;;1.10;;
30466;SDS011;17258;52.560;13.046;2022-11-09T01:23:45;3.58;;;1.23;;
30466;SDS011;17258;52.560;13.046;2022-11-09T01:33:46;1.10;;;1.00;;
30466;SDS011;17258;52.560;13.046;2022-11-09T01:54:30;1.13;;;1.03;;
30466;SDS011;17258;52.560;13.046;2022-11-09T02:04:42;1.35;;;0.77;;
30466;SDS011;17258;52.560;13.046;2022-11-09T02:14:51;1.50;;;1.10;;
30466;SDS011;17258;52.560;13.046;2022-11-09T02:24:55;3.65;;;1.08;;
30466;SDS011;17258;52.560;13.046;2022-11-09T02:34:56;0.67;;;0.67;;
30466;SDS011;17258;52.560;13.046;2022-11-09T02:44:57;4.00;;;0.95;;
30466;SDS011;17258;52.560;13.046;2022-11-09T02:54:58;1.25;;;0.90;;
30466;SDS011;17258;52.560;13.046;2022-11-09T03:04:59;1.00;;;1.00;;
30466;SDS011;17258;52.560;13.046;2022-11-09T03:15:00;1.03;;;1.03;;
30466;SDS011;17258;52.560;13.046;2022-11-09T03:25:05;0.73;;;0.73;;
30466;SDS011;17258;52.560;13.046;2022-11-09T03:35:06;0.85;;;0.85;;
30466;SDS011;17258;52.560;13.046;2022-11-09T03:45:08;0.93;;;0.93;;
30466;SDS011;17258;52.560;13.046;2022-11-09T03:55:09;0.90;;;0.90;;
30466;SDS011;17258;52.560;13.046;2022-11-09T04:05:10;0.87;;;0.87;;
30466;SDS011;17258;52.560;13.046;2022-11-09T04:15:11;4.43;;;1.13;;
30466;SDS011;17258;52.560;13.046;2022-11-09T04:25:13;1.13;;;0.98;;
30466;SDS011;17258;52.560;13.046;2022-11-09T04:35:13;1.98;;;1.23;;
30466;SDS011;17258;52.560;13.046;2022-11-09T04:45:14;2.78;;;1.00;;
30466;SDS011;17258;52.560;13.046;2022-11-09T04:55:15;1.35;;;1.25;;
30466;SDS011;17258;52.560;13.046;2022-11-09T05:05:16;1.08;;;1.05;;
30466;SDS011;17258;52.560;13.046;2022-11-09T05:15:16;1.20;;;1.13;;
30466;SDS011;17258;52.560;13.046;2022-11-09T05:25:17;1.27;;;0.97;;
30466;SDS011;17258;52.560;13.046;2022-11-09T05:35:18;1.23;;;1.03;;
30466;SDS011;17258;52.560;13.046;2022-11-09T05:45:18;0.88;;;0.88;;
30466;SDS011;17258;52.560;13.046;2022-11-09T05:55:20;1.25;;;0.88;;
30466;SDS011;17258;52.560;13.046;2022-11-09T06:05:20;0.70;;;0.70;;
30466;SDS011;17258;52.560;13.046;2022-11-09T06:15:21;0.90;;;0.90;;
30466;SDS011;17258;52.560;13.046;2022-11-09T06:25:22;1.13;;;0.97;;
30466;SDS011;17258;52.560;13.046;2022-11-09T06:35:23;1.17;;;0.80;;
30466;SDS011;17258;52.560;13.046;2022-11-09T06:45:23;0.83;;;0.83;;
30466;SDS011;17258;52.560;13.046;2022-11-09T06:55:26;1.05;;;1.02;;
30466;SDS011;17258;52.560;13.046;2022-11-09T07:05:28;1.17;;;1.08;;
30466;SDS011;17258;52.560;13.046;2022-11-09T07:15:28;0.77;;;0.77;;
30466;SDS011;17258;52.560;13.046;2022-11-09T07:25:29;1.75;;;1.50;;
30466;SDS011;17258;52.560;13.046;2022-11-09T07:35:31;1.98;;;1.13;;
30466;SDS011;17258;52.560;13.046;2022-11-09T07:45:32;1.77;;;1.67;;
30466;SDS011;17258;52.560;13.046;2022-11-09T07:55:34;1.65;;;1.55;;
30466;SDS011;17258;52.560;13.046;2022-11-09T08:05:35;1.23;;;1.20;;
30466;SDS011;17258;52.560;13.046;2022-11-09T08:15:37;1.75;;;1.35;;
30466;SDS011;17258;52.560;13.046;2022-11-09T08:25:38;1.30;;;1.20;;
30466;SDS011;17258;52.560;13.046;2022-11-09T08:35:39;2.17;;;1.98;;
30466;SDS011;17258;52.560;13.046;2022-11-09T08:45:40;1.50;;;1.40;;
30466;SDS011;17258;52.560;13.046;2022-11-09T08:55:40;1.60;;;1.50;;
30466;SDS011;17258;52.560;13.046;2022-11-09T09:05:41;2.17;;;2.07;;
30466;SDS011;17258;52.560;13.046;2022-11-09T09:15:42;3.30;;;3.10;;
30466;SDS011;17258;52.560;13.046;2022-11-09T09:25:42;2.47;;;2.03;;
30466;SDS011;17258;52.560;13.046;2022-11-09T09:35:43;1.90;;;1.70;;
30466;SDS011;17258;52.560;13.046;2022-11-09T09:45:47;1.93;;;1.30;;
30466;SDS011;17258;52.560;13.046;2022-11-09T09:55:55;2.03;;;1.88;;
30466;SDS011;17258;52.560;13.046;2022-11-09T10:06:07;3.03;;;2.83;;
30466;SDS011;17258;52.560;13.046;2022-11-09T10:16:48;2.83;;;2.60;;
30466;SDS011;17258;52.560;13.046;2022-11-09T10:27:06;1.90;;;1.80;;
30466;SDS011;17258;52.560;13.046;2022-11-09T10:37:27;1.65;;;1.58;;
30466;SDS011;17258;52.560;13.046;2022-11-09T10:47:43;3.28;;;3.13;;
30466;SDS011;17258;52.560;13.046;2022-11-09T10:57:52;9.18;;;8.70;;
30466;SDS011;17258;52.560;13.046;2022-11-09T11:08:02;9.20;;;8.70;;
30466;SDS011;17258;52.560;13.046;2022-11-09T11:18:23;9.13;;;8.73;;
30466;SDS011;17258;52.560;13.046;2022-11-09T11:28:28;9.10;;;8.60;;
30466;SDS011;17258;52.560;13.046;2022-11-09T11:38:50;9.55;;;8.93;;
30466;SDS011;17258;52.560;13.046;2022-11-09T11:49:18;11.43;;;10.82;;
30466;SDS011;17258;52.560;13.046;2022-11-09T12:10:16;13.60;;;12.90;;
30466;SDS011;17258;52.560;13.046;2022-11-09T12:20:31;14.52;;;13.40;;
30466;SDS011;17258;52.560;13.046;2022-11-09T12:41:07;13.43;;;12.73;;
30466;SDS011;17258;52.560;13.046;2022-11-09T12:51:15;4.30;;;4.10;;
30466;SDS011;17258;52.560;13.046;2022-11-09T13:01:42;4.43;;;4.10;;
30466;SDS011;17258;52.560;13.046;2022-11-09T13:11:40;5.78;;;5.47;;
30466;SDS011;17258;52.560;13.046;2022-11-09T13:21:47;7.50;;;7.10;;
30466;SDS011;17258;52.560;13.046;2022-11-09T13:32:02;6.40;;;6.07;;
30466;SDS011;17258;52.560;13.046;2022-11-09T13:42:23;10.80;;;10.30;;
30466;SDS011;17258;52.560;13.046;2022-11-09T13:52:50;4.90;;;4.70;;
30466;SDS011;17258;52.560;13.046;2022-11-09T14:02:55;1.00;;;0.90;;
30466;SDS011;17258;52.560;13.046;2022-11-09T14:13:05;1.70;;;0.70;;
30466;SDS011;17258;52.560;13.046;2022-11-09T14:23:31;0.60;;;0.60;;
30466;SDS011;17258;52.560;13.046;2022-11-09T14:33:33;0.50;;;0.50;;
30466;SDS011;17258;52.560;13.046;2022-11-09T14:53:40;0.70;;;0.70;;
30466;SDS011;17258;52.560;13.046;2022-11-09T15:03:42;0.70;;;0.70;;
30466;SDS011;17258;52.560;13.046;2022-11-09T15:13:44;0.50;;;0.50;;
30466;SDS011;17258;52.560;13.046;2022-11-09T15:23:49;0.85;;;0.80;;
30466;SDS011;17258;52.560;13.046;2022-11-09T15:34:14;1.85;;;0.70;;
30466;SDS011;17258;52.560;13.046;2022-11-09T15:44:23;0.50;;;0.50;;
30466;SDS011;17258;52.560;13.046;2022-11-09T15:54:23;0.60;;;0.60;;
30466;SDS011;17258;52.560;13.046;2022-11-09T16:04:24;0.53;;;0.53;;
30466;SDS011;17258;52.560;13.046;2022-11-09T16:14:24;0.60;;;0.60;;
30466;SDS011;17258;52.560;13.046;2022-11-09T16:24:25;0.77;;;0.77;;
30466;SDS011;17258;52.560;13.046;2022-11-09T16:34:26;0.80;;;0.80;;
30466;SDS011;17258;52.560;13.046;2022-11-09T16:44:29;1.67;;;1.30;;
30466;SDS011;17258;52.560;13.046;2022-11-09T16:54:33;1.73;;;1.35;;
30466;SDS011;17258;52.560;13.046;2022-11-09T17:04:35;1.25;;;1.23;;
30466;SDS011;17258;52.560;13.046;2022-11-09T17:14:35;2.00;;;1.85;;
30466;SDS011;17258;52.560;13.046;2022-11-09T17:24:36;2.87;;;2.03;;
30466;SDS011;17258;52.560;13.046;2022-11-09T17:34:37;6.97;;;2.47;;
30466;SDS011;17258;52.560;13.046;2022-11-09T17:44:37;2.30;;;2.10;;
30466;SDS011;17258;52.560;13.046;2022-11-09T17:54:38;3.03;;;2.60;;
30466;SDS011;17258;52.560;13.046;2022-11-09T18:04:38;2.20;;;1.53;;
30466;SDS011;17258;52.560;13.046;2022-11-09T18:14:39;1.45;;;1.05;;
30466;SDS011;17258;52.560;13.046;2022-11-09T18:24:40;2.17;;;1.00;;
30466;SDS011;17258;52.560;13.046;2022-11-09T18:34:41;1.30;;;0.90;;
30466;SDS011;17258;52.560;13.046;2022-11-09T18:44:41;0.80;;;0.80;;
30466;SDS011;17258;52.560;13.046;2022-11-09T18:54:42;0.40;;;0.40;;
30466;SDS011;17258;52.560;13.046;2022-11-09T19:04:43;0.50;;;0.50;;
30466;SDS011;17258;52.560;13.046;2022-11-09T19:14:44;2.67;;;0.47;;
30466;SDS011;17258;52.560;13.046;2022-11-09T19:24:45;1.83;;;0.70;;
30466;SDS011;17258;52.560;13.046;2022-11-09T19:34:45;0.63;;;0.63;;
30466;SDS011;17258;52.560;13.046;2022-11-09T19:44:46;2.00;;;1.00;;
30466;SDS011;17258;52.560;13.046;2022-11-09T19:54:47;1.50;;;1.20;;
30466;SDS011;17258;52.560;13.046;2022-11-09T20:04:47;1.73;;;1.63;;
30466;SDS011;17258;52.560;13.046;2022-11-09T20:14:49;1.70;;;1.60;;
30466;SDS011;17258;52.560;13.046;2022-11-09T20:24:50;2.20;;;1.90;;
30466;SDS011;17258;52.560;13.046;2022-11-09T20:34:50;2.67;;;1.83;;
30466;SDS011;17258;52.560;13.046;2022-11-09T20:44:51;3.97;;;2.33;;
30466;SDS011;17258;52.560;13.046;2022-11-09T20:54:53;2.10;;;1.90;;
30466;SDS011;17258;52.560;13.046;2022-11-09T21:04:54;1.50;;;1.40;;
30466;SDS011;17258;52.560;13.046;2022-11-09T21:14:54;1.40;;;1.13;;
30466;SDS011;17258;52.560;13.046;2022-11-09T21:24:55;2.37;;;1.03;;
30466;SDS011;17258;52.560;13.046;2022-11-09T21:35:14;1.80;;;0.88;;
30466;SDS011;17258;52.560;13.046;2022-11-09T21:45:15;1.20;;;1.10;;
30466;SDS011;17258;52.560;13.046;2022-11-09T21:55:15;1.20;;;1.10;;
30466;SDS011;17258;52.560;13.046;2022-11-09T22:05:16;0.73;;;0.73;;
30466;SDS011;17258;52.560;13.046;2022-11-09T22:15:17;1.27;;;0.83;;
30466;SDS011;17258;52.560;13.046;2022-11-09T22:35:36;1.60;;;0.98;;
30466;SDS011;17258;52.560;13.046;2022-11-09T22:45:37;2.07;;;0.87;;
30466;SDS011;17258;52.560;13.046;2022-11-09T22:55:38;1.42;;;1.00;;
30466;SDS011;17258;52.560;13.046;2022-11-09T23:05:38;1.10;;;0.87;;
30466;SDS011;17258;52.560;13.046;2022-11-09T23:15:39;0.98;;;0.82;;
30466;SDS011;17258;52.560;13.046;2022-11-09T23:25:40;3.17;;;0.93;;
30466;SDS011;17258;52.560;13.046;2022-11-09T23:35:53;1.50;;;0.98;;
30466;SDS011;17258;52.560;13.046;2022-11-09T23:45:54;1.45;;;1.10;;
30466;SDS011;17258;52.560;13.046;2022-11-09T23:56:03;2.30;;;1.10;;
